• Join FlightAware (Why Join?)
  • Login
  • US Flag GB Flag 
09:42 EDT


 

Airport Tracker/Info


-or-


 

Live Flight TrackerFlight Track Log ✈ N924AK ✈ 23-Jun-2013 ✈ KDCA - KMIA

Flight Track Log - Related Links

Times and Time Zones

All times are in EDT time to prevent confusion due to time zone crossing. See the N924AK flight status page for this flight to view local times or setup timezone preferences in your user account.

Time Position Orientation Groundspeed Altitude Reporting Facility
EDT Latitude Longitude Course Direction KTS MPH feet Rate Location/Type
17:03 38.8833 -77.0500 311° West 179 206 1,200  Level Potomac TRACON
17:04 38.9167 -77.1000 311° West 224 258 3,600 2,700 Climbing Potomac TRACON
17:05 38.9667 -77.1667 314° West 253 291 6,400 2,820 Climbing Potomac TRACON
17:06 39.0333 -77.1667 360° North 290 334 9,300 2,640 Climbing Potomac TRACON
17:07 39.0167 -77.0833 104° East 301 346 11,800 2,100 Climbing Potomac TRACON
17:09 38.9244 -76.9444 130° Southeast 331 381 14,800 1,740 Climbing Washington Center
17:10 38.8356 -76.8894 154° Southeast 336 387 16,400 1,500 Climbing Washington Center
17:11 38.7403 -76.8347 156° South 357 411 17,900 1,680 Climbing Washington Center
17:12 38.6553 -76.7853 156° South 367 422 19,800 2,040 Climbing Washington Center
17:13 38.5639 -76.7333 156° South 367 422 22,100 2,100 Climbing Washington Center
17:14 38.4683 -76.7133 171° South 357 411 24,000 1,560 Climbing Washington Center
17:15 38.3683 -76.7014 175° South 357 411 25,200 960 Climbing Washington Center
17:16 38.2661 -76.6839 172° South 362 417 26,000 780 Climbing Washington Center
17:17 38.1539 -76.6692 174° South 387 445 26,800 1,320 Climbing Washington Center
17:18 38.0433 -76.6569 175° South 399 459 28,700 1,860 Climbing Washington Center
17:19 37.9372 -76.6422 174° South 399 459 30,500 1,620 Climbing Washington Center
17:20 37.8164 -76.6275 175° South 399 459 32,000 720 Climbing Washington Center
17:21 37.7039 -76.6103 173° South 409 471 32,000  Level Washington Center
17:22 37.5956 -76.6008 176° South 414 476 32,000  Level Washington Center
17:23 37.4742 -76.6306 191° South 439 505 32,000 420 Level Washington Center
17:24 37.3550 -76.6656 193° South 439 505 32,900 1,320 Climbing Washington Center
17:25 37.2442 -76.7058 196° South 433 498 34,700 1,500 Climbing Washington Center
17:26 37.1353 -76.7408 194° South 422 486 36,000 1,200 Climbing Washington Center
17:27 37.0286 -76.7783 196° South 410 472 37,100 1,320 Climbing Washington Center
17:28 36.9239 -76.8103 194° South 398 458 38,700 1,140 Climbing Washington Center
17:29 36.8233 -76.8425 194° South 387 445 39,500 600 Climbing Washington Center
17:30 36.7250 -76.8772 196° South 376 433 40,000 240 Climbing Washington Center
17:31 36.6244 -76.9092 194° South 376 433 40,000  Level Washington Center
17:32 36.5178 -76.9411 194° South 381 438 40,000  Level Washington Center
17:33 36.3983 -76.9828 196° South 397 457 40,000  Level Washington Center
17:34 36.2875 -77.0169 194° South 402 463 40,000  Level Washington Center
17:35 36.1764 -77.0536 195° South 412 474 40,000  Level Washington Center
17:36 36.0633 -77.0875 194° South 418 481 40,000  Level Washington Center
17:37 35.9503 -77.1214 194° South 418 481 40,000  Level Washington Center
17:38 35.8453 -77.1578 196° South 404 465 40,000  Level Washington Center
17:39 35.7281 -77.1911 193° South 409 471 40,000  Level Washington Center
17:40 35.6150 -77.2272 195° South 414 476 40,000  Level Washington Center
17:41 35.5017 -77.2633 195° South 414 476 40,000  Level Washington Center
17:42 35.3886 -77.2992 194° South 414 476 40,000  Level Washington Center
17:43 35.2775 -77.3297 193° South 414 476 40,000  Level Washington Center
17:44 35.1664 -77.3681 196° South 414 476 40,000  Level Washington Center
17:45 35.0764 -77.3939 193° South 414 476 40,000  Level Washington Center
17:46 34.9508 -77.4089 186° South 414 476 40,000  Level Washington Center
17:47 34.8319 -77.4089 180° South 419 482 40,000  Level Washington Center
17:48 34.7153 -77.3986 176° South 419 482 40,000  Level Washington Center
17:49 34.5986 -77.3861 175° South 425 489 40,000  Level Washington Center
17:50 34.4797 -77.3858 180° South 425 489 40,000  Level Washington Center
17:51 34.3644 -77.4236 195° South 425 489 40,000  Level Washington Center
17:52 34.2533 -77.4614 196° South 425 489 40,000  Level Washington Center
17:54 34.0419 -77.5372 197° South 426 490 40,000  Level Jacksonville Center
17:55 33.9261 -77.5644 191° South 431 496 40,000  Level Jacksonville Center
17:56 33.8058 -77.5767 185° South 437 503 40,000  Level Jacksonville Center
17:57 33.6831 -77.5867 184° South 437 503 40,000  Level Jacksonville Center
17:58 33.5522 -77.6019 186° South 437 503 40,000  Level Jacksonville Center
17:59 33.4317 -77.6142 185° South 437 503 40,000  Level Jacksonville Center
18:00 33.3133 -77.6286 186° South 437 503 40,000  Level Jacksonville Center
18:01 33.1908 -77.6408 185° South 437 503 40,000  Level Jacksonville Center
18:02 33.0683 -77.6528 185° South 442 509 40,000  Level Jacksonville Center
18:03 32.9478 -77.6650 185° South 442 509 40,000  Level Jacksonville Center
18:04 32.8272 -77.6794 186° South 442 509 40,000  Level Jacksonville Center
18:05 32.7025 -77.6914 185° South 442 509 40,000  Level Jacksonville Center
18:06 32.5778 -77.7036 185° South 442 509 40,000  Level Jacksonville Center
18:07 32.4553 -77.7203 187° South 442 509 40,000  Level Jacksonville Center
18:08 32.3306 -77.7300 184° South 442 509 40,000  Level Jacksonville Center
18:09 32.2058 -77.7419 185° South 442 509 40,000  Level Jacksonville Center
18:10 32.0814 -77.7586 186° South 442 509 40,000  Level Jacksonville Center
18:11 31.9567 -77.7731 186° South 447 514 40,000  Level Jacksonville Center
18:12 31.8325 -77.7994 190° South 447 514 40,000  Level Jacksonville Center
18:13 31.7064 -77.8331 193° South 465 535 40,000  Level Jacksonville Center
18:14 31.5803 -77.8644 192° South 470 541 40,000  Level Jacksonville Center
18:15 31.4542 -77.8931 191° South 463 533 40,000  Level Jacksonville Center
18:16 31.3300 -77.9192 190° South 469 540 40,000  Level Jacksonville Center
18:17 31.2039 -77.9503 192° South 464 534 40,000  Level Jacksonville Center
18:18 31.0794 -77.9714 188° South 463 533 40,000  Level Jacksonville Center
18:19 30.9661 -78.0111 197° South 475 547 40,000  Level Jacksonville Center
18:20 30.8400 -78.0419 192° South 468 539 40,000  Level Jacksonville Center
18:22 30.5958 -78.1011 192° South 473 544 40,000  Level Miami Center
18:23 30.4728 -78.1311 192° South 460 529 40,000  Level Miami Center
18:24 30.3683 -78.1611 194° South 460 529 40,000  Level Miami Center
18:25 30.2281 -78.2242 201° Southwest 460 529 40,000  Level Miami Center
18:26 30.1086 -78.2756 200° South 465 535 40,000  Level Miami Center
18:27 29.9914 -78.3386 205° Southwest 472 543 40,000  Level Miami Center
18:28 29.8697 -78.3894 200° South 466 536 40,000  Level Miami Center
18:29 29.7483 -78.4403 200° South 466 536 40,000  Level Miami Center
18:30 29.6269 -78.4864 198° South 466 536 40,000  Level Miami Center
18:31 29.5053 -78.5394 201° Southwest 471 542 40,000  Level Miami Center
18:32 29.3878 -78.5947 202° Southwest 471 542 40,000  Level Miami Center
18:33 29.2642 -78.6453 200° South 476 548 40,000  Level Miami Center
18:34 29.1467 -78.6978 201° Southwest 470 541 40,000 -60 Level Miami Center
18:35 29.0228 -78.7456 199° South 470 541 39,900  Descending Miami Center
18:36 28.9053 -78.8006 202° Southwest 470 541 40,000  Climbing Miami Center
18:37 28.7794 -78.8481 198° South 470 541 40,000  Level Miami Center
18:38 28.6617 -78.9006 201° Southwest 470 541 40,000  Level Miami Center
18:39 28.5422 -78.9525 201° Southwest 475 547 40,000  Level Miami Center
18:40 28.4203 -79.0047 201° Southwest 475 547 40,000  Level Miami Center
18:41 28.2964 -79.0494 198° South 475 547 40,000  Level Miami Center
18:42 28.1769 -79.0894 196° South 467 537 40,000 -300 Level Miami Center
18:43 28.0489 -79.1247 194° South 467 537 39,500 -1,260 Descending Miami Center
18:44 27.9253 -79.1622 195° South 467 537 37,500 -2,040 Descending Miami Center
18:45 27.8181 -79.1975 196° South 457 526 35,500 -2,340 Descending Miami Center
18:46 27.6756 -79.2414 195° South 471 542 32,900 -2,460 Descending Miami Center
18:47 27.5494 -79.2786 195° South 477 549 30,600 -2,340 Descending Miami Center
18:48 27.4236 -79.3158 195° South 477 549 28,300 -2,160 Descending Miami Center
18:49 27.3103 -79.3508 195° South 477 549 26,300 -1,980 Descending Miami Center
18:50 27.1844 -79.3878 195° South 477 549 24,400 -1,560 Descending Miami Center
18:51 27.0583 -79.4272 196° South 446 513 23,200 -1,560 Descending Miami Center
18:52 26.9469 -79.4594 194° South 421 484 21,300 -2,100 Descending Miami Center
18:53 26.8336 -79.4944 195° South 421 484 19,100 -2,100 Descending Miami Center
18:54 26.7308 -79.5269 196° South 426 490 17,100 -1,560 Descending Miami Center
18:55 26.6150 -79.5731 200° South 412 474 16,000 -600 Descending Miami Center
18:56 26.5322 -79.6361 214° Southwest 403 464 16,000 -60 Level Miami Center
18:57 26.4592 -79.7411 232° Southwest 403 464 15,900 -420 Descending Miami Center
18:58 26.3972 -79.8208 229° Southwest 390 449 15,200 -1,200 Descending Miami Center
18:59 26.2956 -79.8878 211° Southwest 383 441 13,500 -1,560 Descending Miami Center
19:00 26.2108 -79.9436 211° Southwest 390 449 12,100 -1,500 Descending Miami Center
19:01 26.1178 -79.9967 207° Southwest 390 449 10,500 -1,140 Descending Miami Center
19:02 26.0414 -80.0456 210° Southwest 358 412 9,900 -840 Descending Miami Center
19:03 25.9758 -80.0900 211° Southwest 315 362 8,900 -900 Descending Miami Center
19:04 25.9131 -80.1853 234° Southwest 272 313 7,900 -840 Descending Miami Center
19:05 25.9044 -80.2844 265° West 292 336 7,000 -1,020 Descending Miami Center
19:06 25.8983 -80.3719 266° West 279 321 5,800 -1,500 Descending Miami Center
19:07 25.8878 -80.4572 262° West 276 318 4,000 -1,500 Descending Miami Center
19:08 25.8208 -80.4667 187° South 222 255 2,700 -1,080 Descending Miami Center
19:09 25.7944 -80.4267 126° Southeast 202 232 2,000 -780 Descending Miami Center
19:10 25.7958 -80.3714 88° East 139 160 1,200 -720 Descending Miami Center
19:11 25.8011 -80.3231 83° East 127 146 400 -720 Descending Miami Center
19:13 25.7954 -80.2901 103° East  Level Estimated
19:20 25.7954 -80.2901 103° East  Level Estimated